sensor_id;sensor_type;location;lat;lon;timestamp;temperature;humidity
20498;DHT22;10407;53.238;10.448;2023-04-29T00:01:37;10.00;99.90
20498;DHT22;10407;53.238;10.448;2023-04-29T00:04:04;9.90;99.90
20498;DHT22;10407;53.238;10.448;2023-04-29T00:06:32;9.90;99.90
20498;DHT22;10407;53.238;10.448;2023-04-29T00:09:00;9.80;99.90
20498;DHT22;10407;53.238;10.448;2023-04-29T00:11:27;9.70;99.90
20498;DHT22;10407;53.238;10.448;2023-04-29T00:13:55;9.90;99.90
20498;DHT22;10407;53.238;10.448;2023-04-29T00:16:23;9.70;99.90
20498;DHT22;10407;53.238;10.448;2023-04-29T00:18:50;9.80;99.90
20498;DHT22;10407;53.238;10.448;2023-04-29T00:21:18;10.00;99.90
20498;DHT22;10407;53.238;10.448;2023-04-29T00:23:46;9.60;99.90
20498;DHT22;10407;53.238;10.448;2023-04-29T00:26:13;9.90;99.90
20498;DHT22;10407;53.238;10.448;2023-04-29T00:28:41;10.00;99.90
20498;DHT22;10407;53.238;10.448;2023-04-29T00:31:08;9.90;99.90
20498;DHT22;10407;53.238;10.448;2023-04-29T00:33:36;9.50;99.90
20498;DHT22;10407;53.238;10.448;2023-04-29T00:36:04;9.70;99.90
20498;DHT22;10407;53.238;10.448;2023-04-29T00:38:32;9.60;99.90
20498;DHT22;10407;53.238;10.448;2023-04-29T00:40:59;10.00;99.90
20498;DHT22;10407;53.238;10.448;2023-04-29T00:43:27;10.20;99.90
20498;DHT22;10407;53.238;10.448;2023-04-29T00:45:54;10.20;99.90
20498;DHT22;10407;53.238;10.448;2023-04-29T00:48:23;10.40;99.90
20498;DHT22;10407;53.238;10.448;2023-04-29T00:50:50;9.90;99.90
20498;DHT22;10407;53.238;10.448;2023-04-29T00:53:18;9.90;99.90
20498;DHT22;10407;53.238;10.448;2023-04-29T00:55:46;9.90;99.90
20498;DHT22;10407;53.238;10.448;2023-04-29T00:58:17;9.80;99.90
20498;DHT22;10407;53.238;10.448;2023-04-29T01:00:45;9.80;99.90
20498;DHT22;10407;53.238;10.448;2023-04-29T01:03:15;9.80;99.90
20498;DHT22;10407;53.238;10.448;2023-04-29T01:05:44;9.70;99.90
20498;DHT22;10407;53.238;10.448;2023-04-29T01:11:16;9.50;99.90
20498;DHT22;10407;53.238;10.448;2023-04-29T01:13:36;9.40;99.90
20498;DHT22;10407;53.238;10.448;2023-04-29T01:16:04;9.30;99.90
20498;DHT22;10407;53.238;10.448;2023-04-29T01:18:41;9.60;99.90
20498;DHT22;10407;53.238;10.448;2023-04-29T01:21:05;9.70;99.90
20498;DHT22;10407;53.238;10.448;2023-04-29T01:23:33;9.50;99.90
20498;DHT22;10407;53.238;10.448;2023-04-29T01:26:01;9.60;99.90
20498;DHT22;10407;53.238;10.448;2023-04-29T01:28:53;9.80;99.90
20498;DHT22;10407;53.238;10.448;2023-04-29T01:34:11;10.20;99.90
20498;DHT22;10407;53.238;10.448;2023-04-29T01:42:04;9.50;99.90
20498;DHT22;10407;53.238;10.448;2023-04-29T01:44:28;9.30;99.90
20498;DHT22;10407;53.238;10.448;2023-04-29T01:46:58;9.60;99.90
20498;DHT22;10407;53.238;10.448;2023-04-29T01:49:28;9.90;99.90
20498;DHT22;10407;53.238;10.448;2023-04-29T01:51:56;9.70;99.90
20498;DHT22;10407;53.238;10.448;2023-04-29T01:54:24;9.90;99.90
20498;DHT22;10407;53.238;10.448;2023-04-29T01:56:52;9.30;99.90
20498;DHT22;10407;53.238;10.448;2023-04-29T01:59:19;9.30;99.90
20498;DHT22;10407;53.238;10.448;2023-04-29T02:01:47;9.60;99.90
20498;DHT22;10407;53.238;10.448;2023-04-29T02:04:14;9.90;99.90
20498;DHT22;10407;53.238;10.448;2023-04-29T02:06:42;9.80;99.90
20498;DHT22;10407;53.238;10.448;2023-04-29T02:09:10;9.30;99.90
20498;DHT22;10407;53.238;10.448;2023-04-29T02:11:37;9.30;99.90
20498;DHT22;10407;53.238;10.448;2023-04-29T02:14:05;9.70;99.90
20498;DHT22;10407;53.238;10.448;2023-04-29T02:16:32;9.80;99.90
20498;DHT22;10407;53.238;10.448;2023-04-29T02:19:00;9.70;99.90
20498;DHT22;10407;53.238;10.448;2023-04-29T02:21:28;10.00;99.90
20498;DHT22;10407;53.238;10.448;2023-04-29T02:23:55;9.80;99.90
20498;DHT22;10407;53.238;10.448;2023-04-29T02:26:23;10.00;99.90
20498;DHT22;10407;53.238;10.448;2023-04-29T02:28:50;9.80;99.90
20498;DHT22;10407;53.238;10.448;2023-04-29T02:31:18;10.00;99.90
20498;DHT22;10407;53.238;10.448;2023-04-29T02:33:45;9.80;99.90
20498;DHT22;10407;53.238;10.448;2023-04-29T02:36:13;10.10;99.90
20498;DHT22;10407;53.238;10.448;2023-04-29T02:38:40;10.10;99.90
20498;DHT22;10407;53.238;10.448;2023-04-29T02:41:08;10.00;99.90
20498;DHT22;10407;53.238;10.448;2023-04-29T02:43:35;10.10;99.90
20498;DHT22;10407;53.238;10.448;2023-04-29T02:46:03;10.10;99.90
20498;DHT22;10407;53.238;10.448;2023-04-29T02:48:30;10.20;99.90
20498;DHT22;10407;53.238;10.448;2023-04-29T02:50:58;10.30;99.90
20498;DHT22;10407;53.238;10.448;2023-04-29T02:53:25;10.30;99.90
20498;DHT22;10407;53.238;10.448;2023-04-29T02:55:53;10.20;99.90
20498;DHT22;10407;53.238;10.448;2023-04-29T02:58:21;10.10;99.90
20498;DHT22;10407;53.238;10.448;2023-04-29T03:00:48;10.20;99.90
20498;DHT22;10407;53.238;10.448;2023-04-29T03:03:16;10.30;99.90
20498;DHT22;10407;53.238;10.448;2023-04-29T03:05:43;10.40;99.90
20498;DHT22;10407;53.238;10.448;2023-04-29T03:08:11;10.40;99.90
20498;DHT22;10407;53.238;10.448;2023-04-29T03:10:38;10.50;99.90
20498;DHT22;10407;53.238;10.448;2023-04-29T03:13:06;10.50;99.90
20498;DHT22;10407;53.238;10.448;2023-04-29T03:15:34;10.60;99.90
20498;DHT22;10407;53.238;10.448;2023-04-29T03:18:02;10.30;99.90
20498;DHT22;10407;53.238;10.448;2023-04-29T03:20:30;10.50;99.90
20498;DHT22;10407;53.238;10.448;2023-04-29T03:22:58;10.50;99.90
20498;DHT22;10407;53.238;10.448;2023-04-29T03:25:26;10.50;99.90
20498;DHT22;10407;53.238;10.448;2023-04-29T03:27:54;10.30;99.90
20498;DHT22;10407;53.238;10.448;2023-04-29T03:30:21;10.40;99.90
20498;DHT22;10407;53.238;10.448;2023-04-29T03:32:49;10.50;99.90
20498;DHT22;10407;53.238;10.448;2023-04-29T03:35:16;10.60;99.90
20498;DHT22;10407;53.238;10.448;2023-04-29T03:37:44;10.60;99.90
20498;DHT22;10407;53.238;10.448;2023-04-29T03:40:12;10.50;99.90
20498;DHT22;10407;53.238;10.448;2023-04-29T03:42:40;10.60;99.90
20498;DHT22;10407;53.238;10.448;2023-04-29T03:45:08;10.60;99.90
20498;DHT22;10407;53.238;10.448;2023-04-29T03:47:38;10.50;99.90
20498;DHT22;10407;53.238;10.448;2023-04-29T03:50:07;10.60;99.90
20498;DHT22;10407;53.238;10.448;2023-04-29T03:52:35;10.60;99.90
20498;DHT22;10407;53.238;10.448;2023-04-29T03:55:03;10.60;99.90
20498;DHT22;10407;53.238;10.448;2023-04-29T03:57:31;10.60;99.90
20498;DHT22;10407;53.238;10.448;2023-04-29T03:59:59;10.70;99.90
20498;DHT22;10407;53.238;10.448;2023-04-29T04:02:26;10.70;99.90
20498;DHT22;10407;53.238;10.448;2023-04-29T04:04:54;10.70;99.90
20498;DHT22;10407;53.238;10.448;2023-04-29T04:07:21;10.70;99.90
20498;DHT22;10407;53.238;10.448;2023-04-29T04:09:49;10.70;99.90
20498;DHT22;10407;53.238;10.448;2023-04-29T04:12:16;10.70;99.90
20498;DHT22;10407;53.238;10.448;2023-04-29T04:14:44;10.70;99.90
20498;DHT22;10407;53.238;10.448;2023-04-29T04:17:12;10.70;99.90
20498;DHT22;10407;53.238;10.448;2023-04-29T04:19:39;10.70;99.90
20498;DHT22;10407;53.238;10.448;2023-04-29T04:22:06;10.80;99.90
20498;DHT22;10407;53.238;10.448;2023-04-29T04:24:34;10.70;99.90
20498;DHT22;10407;53.238;10.448;2023-04-29T04:27:01;10.60;99.90
20498;DHT22;10407;53.238;10.448;2023-04-29T04:29:29;10.70;99.90
20498;DHT22;10407;53.238;10.448;2023-04-29T04:31:56;10.70;99.90
20498;DHT22;10407;53.238;10.448;2023-04-29T04:34:24;10.70;99.90
20498;DHT22;10407;53.238;10.448;2023-04-29T04:36:52;10.80;99.90
20498;DHT22;10407;53.238;10.448;2023-04-29T04:39:20;10.80;99.90
20498;DHT22;10407;53.238;10.448;2023-04-29T04:41:47;10.80;99.90
20498;DHT22;10407;53.238;10.448;2023-04-29T04:44:15;10.70;99.90
20498;DHT22;10407;53.238;10.448;2023-04-29T04:46:42;10.60;99.90
20498;DHT22;10407;53.238;10.448;2023-04-29T04:49:10;10.30;99.90
20498;DHT22;10407;53.238;10.448;2023-04-29T04:51:37;10.50;99.90
20498;DHT22;10407;53.238;10.448;2023-04-29T04:54:05;10.60;99.90
20498;DHT22;10407;53.238;10.448;2023-04-29T04:56:32;10.70;99.90
20498;DHT22;10407;53.238;10.448;2023-04-29T04:59:01;10.70;99.90
20498;DHT22;10407;53.238;10.448;2023-04-29T05:01:29;10.70;99.90
20498;DHT22;10407;53.238;10.448;2023-04-29T05:03:57;10.80;99.90
20498;DHT22;10407;53.238;10.448;2023-04-29T05:06:25;10.80;99.90
20498;DHT22;10407;53.238;10.448;2023-04-29T05:08:53;10.80;99.90
20498;DHT22;10407;53.238;10.448;2023-04-29T05:11:21;10.90;99.90
20498;DHT22;10407;53.238;10.448;2023-04-29T05:13:49;10.80;99.90
20498;DHT22;10407;53.238;10.448;2023-04-29T05:16:16;10.90;99.90
20498;DHT22;10407;53.238;10.448;2023-04-29T05:18:44;10.90;99.90
20498;DHT22;10407;53.238;10.448;2023-04-29T05:21:12;10.60;99.90
20498;DHT22;10407;53.238;10.448;2023-04-29T05:23:40;10.90;99.90
20498;DHT22;10407;53.238;10.448;2023-04-29T05:26:08;10.90;99.90
20498;DHT22;10407;53.238;10.448;2023-04-29T05:28:36;10.90;99.90
20498;DHT22;10407;53.238;10.448;2023-04-29T05:31:04;10.90;99.90
20498;DHT22;10407;53.238;10.448;2023-04-29T05:33:31;10.90;99.90
20498;DHT22;10407;53.238;10.448;2023-04-29T05:35:59;10.70;99.90
20498;DHT22;10407;53.238;10.448;2023-04-29T05:38:26;10.70;99.90
20498;DHT22;10407;53.238;10.448;2023-04-29T05:40:57;10.70;99.90
20498;DHT22;10407;53.238;10.448;2023-04-29T05:43:25;10.50;99.90
20498;DHT22;10407;53.238;10.448;2023-04-29T05:45:53;10.60;99.90
20498;DHT22;10407;53.238;10.448;2023-04-29T05:48:21;10.60;99.90
20498;DHT22;10407;53.238;10.448;2023-04-29T05:50:50;10.60;99.90
20498;DHT22;10407;53.238;10.448;2023-04-29T05:53:19;10.20;99.90
20498;DHT22;10407;53.238;10.448;2023-04-29T05:55:47;10.50;99.90
20498;DHT22;10407;53.238;10.448;2023-04-29T05:58:16;10.70;99.90
20498;DHT22;10407;53.238;10.448;2023-04-29T06:00:43;10.80;99.90
20498;DHT22;10407;53.238;10.448;2023-04-29T06:03:11;10.90;99.90
20498;DHT22;10407;53.238;10.448;2023-04-29T06:05:39;11.00;99.90
20498;DHT22;10407;53.238;10.448;2023-04-29T06:08:07;11.00;99.90
20498;DHT22;10407;53.238;10.448;2023-04-29T06:10:36;10.50;99.90
20498;DHT22;10407;53.238;10.448;2023-04-29T06:13:03;10.60;99.90
20498;DHT22;10407;53.238;10.448;2023-04-29T06:15:31;10.90;99.90
20498;DHT22;10407;53.238;10.448;2023-04-29T06:17:59;11.10;99.90
20498;DHT22;10407;53.238;10.448;2023-04-29T06:20:26;11.20;99.90
20498;DHT22;10407;53.238;10.448;2023-04-29T06:22:54;11.30;99.90
20498;DHT22;10407;53.238;10.448;2023-04-29T06:25:21;11.30;99.90
20498;DHT22;10407;53.238;10.448;2023-04-29T06:27:49;11.30;99.90
20498;DHT22;10407;53.238;10.448;2023-04-29T06:30:17;11.50;99.90
20498;DHT22;10407;53.238;10.448;2023-04-29T06:32:44;11.00;99.90
20498;DHT22;10407;53.238;10.448;2023-04-29T06:35:12;11.10;99.90
20498;DHT22;10407;53.238;10.448;2023-04-29T06:37:39;11.50;99.90
20498;DHT22;10407;53.238;10.448;2023-04-29T06:40:07;11.80;99.90
20498;DHT22;10407;53.238;10.448;2023-04-29T06:42:35;12.20;99.90
20498;DHT22;10407;53.238;10.448;2023-04-29T06:45:03;12.40;99.90
20498;DHT22;10407;53.238;10.448;2023-04-29T06:47:31;12.30;99.90
20498;DHT22;10407;53.238;10.448;2023-04-29T06:49:58;12.70;99.90
20498;DHT22;10407;53.238;10.448;2023-04-29T06:52:26;13.90;99.90
20498;DHT22;10407;53.238;10.448;2023-04-29T06:54:53;14.00;99.90
20498;DHT22;10407;53.238;10.448;2023-04-29T06:57:21;14.20;99.90
20498;DHT22;10407;53.238;10.448;2023-04-29T06:59:48;14.40;99.90
20498;DHT22;10407;53.238;10.448;2023-04-29T07:02:16;14.30;99.90
20498;DHT22;10407;53.238;10.448;2023-04-29T07:04:43;14.00;99.90
20498;DHT22;10407;53.238;10.448;2023-04-29T07:07:11;13.80;99.90
20498;DHT22;10407;53.238;10.448;2023-04-29T07:09:38;13.50;99.90
20498;DHT22;10407;53.238;10.448;2023-04-29T07:12:06;14.30;99.90
20498;DHT22;10407;53.238;10.448;2023-04-29T07:14:33;14.20;99.90
20498;DHT22;10407;53.238;10.448;2023-04-29T07:17:02;14.10;99.90
20498;DHT22;10407;53.238;10.448;2023-04-29T07:19:30;14.60;99.90
20498;DHT22;10407;53.238;10.448;2023-04-29T07:21:58;13.70;99.90
20498;DHT22;10407;53.238;10.448;2023-04-29T07:24:25;14.40;99.90
20498;DHT22;10407;53.238;10.448;2023-04-29T07:26:53;15.20;99.90
20498;DHT22;10407;53.238;10.448;2023-04-29T07:29:20;15.60;99.90
20498;DHT22;10407;53.238;10.448;2023-04-29T07:31:48;16.50;99.90
20498;DHT22;10407;53.238;10.448;2023-04-29T07:34:15;16.80;99.90
20498;DHT22;10407;53.238;10.448;2023-04-29T07:36:43;17.20;99.90
20498;DHT22;10407;53.238;10.448;2023-04-29T07:39:10;17.40;99.90
20498;DHT22;10407;53.238;10.448;2023-04-29T07:41:40;17.60;99.90
20498;DHT22;10407;53.238;10.448;2023-04-29T07:44:07;17.10;99.90
20498;DHT22;10407;53.238;10.448;2023-04-29T07:46:35;17.10;99.90
20498;DHT22;10407;53.238;10.448;2023-04-29T07:49:03;15.70;99.90
20498;DHT22;10407;53.238;10.448;2023-04-29T07:51:32;17.00;99.90
20498;DHT22;10407;53.238;10.448;2023-04-29T07:53:59;17.80;99.90
20498;DHT22;10407;53.238;10.448;2023-04-29T07:56:27;17.20;99.90
20498;DHT22;10407;53.238;10.448;2023-04-29T07:58:54;17.20;99.90
20498;DHT22;10407;53.238;10.448;2023-04-29T08:01:22;16.90;99.90
20498;DHT22;10407;53.238;10.448;2023-04-29T08:03:49;17.70;99.90
20498;DHT22;10407;53.238;10.448;2023-04-29T08:06:17;18.10;97.20
20498;DHT22;10407;53.238;10.448;2023-04-29T08:08:49;17.40;95.20
20498;DHT22;10407;53.238;10.448;2023-04-29T08:11:18;17.60;98.00
20498;DHT22;10407;53.238;10.448;2023-04-29T08:13:46;17.70;99.80
20498;DHT22;10407;53.238;10.448;2023-04-29T08:16:14;18.30;95.80
20498;DHT22;10407;53.238;10.448;2023-04-29T08:18:42;18.20;96.40
20498;DHT22;10407;53.238;10.448;2023-04-29T08:21:09;18.00;94.80
20498;DHT22;10407;53.238;10.448;2023-04-29T08:23:38;18.00;93.70
20498;DHT22;10407;53.238;10.448;2023-04-29T08:26:06;17.00;92.90
20498;DHT22;10407;53.238;10.448;2023-04-29T08:28:33;18.20;95.00
20498;DHT22;10407;53.238;10.448;2023-04-29T08:31:01;18.70;92.00
20498;DHT22;10407;53.238;10.448;2023-04-29T08:33:29;19.00;93.40
20498;DHT22;10407;53.238;10.448;2023-04-29T08:35:57;18.90;90.50
20498;DHT22;10407;53.238;10.448;2023-04-29T08:38:27;18.70;88.50
20498;DHT22;10407;53.238;10.448;2023-04-29T08:40:55;18.60;88.10
20498;DHT22;10407;53.238;10.448;2023-04-29T08:43:22;18.70;89.30
20498;DHT22;10407;53.238;10.448;2023-04-29T08:45:50;17.90;91.10
20498;DHT22;10407;53.238;10.448;2023-04-29T08:48:18;18.50;83.10
20498;DHT22;10407;53.238;10.448;2023-04-29T08:50:46;17.80;85.20
20498;DHT22;10407;53.238;10.448;2023-04-29T08:53:14;17.90;91.60
20498;DHT22;10407;53.238;10.448;2023-04-29T08:55:43;17.60;85.40
20498;DHT22;10407;53.238;10.448;2023-04-29T08:58:14;17.40;95.30
20498;DHT22;10407;53.238;10.448;2023-04-29T09:00:43;18.10;89.50
20498;DHT22;10407;53.238;10.448;2023-04-29T09:03:23;18.80;87.40
20498;DHT22;10407;53.238;10.448;2023-04-29T09:05:52;18.70;82.60
20498;DHT22;10407;53.238;10.448;2023-04-29T09:08:23;18.70;81.40
20498;DHT22;10407;53.238;10.448;2023-04-29T09:10:51;19.10;82.70
20498;DHT22;10407;53.238;10.448;2023-04-29T09:13:28;19.30;81.20
20498;DHT22;10407;53.238;10.448;2023-04-29T09:15:55;19.40;80.60
20498;DHT22;10407;53.238;10.448;2023-04-29T09:18:45;18.20;70.30
20498;DHT22;10407;53.238;10.448;2023-04-29T09:21:20;18.70;84.20
20498;DHT22;10407;53.238;10.448;2023-04-29T09:23:54;19.30;78.30
20498;DHT22;10407;53.238;10.448;2023-04-29T09:26:18;19.10;71.40
20498;DHT22;10407;53.238;10.448;2023-04-29T09:28:46;17.90;73.50
20498;DHT22;10407;53.238;10.448;2023-04-29T09:31:25;18.10;78.70
20498;DHT22;10407;53.238;10.448;2023-04-29T09:33:52;18.50;78.50
20498;DHT22;10407;53.238;10.448;2023-04-29T09:39:07;18.70;70.20
20498;DHT22;10407;53.238;10.448;2023-04-29T09:41:55;18.80;73.20
20498;DHT22;10407;53.238;10.448;2023-04-29T09:44:11;19.10;69.70
20498;DHT22;10407;53.238;10.448;2023-04-29T09:46:38;19.20;71.40
20498;DHT22;10407;53.238;10.448;2023-04-29T09:49:23;18.80;71.70
20498;DHT22;10407;53.238;10.448;2023-04-29T09:51:58;18.90;68.20
20498;DHT22;10407;53.238;10.448;2023-04-29T09:54:29;18.80;70.30
20498;DHT22;10407;53.238;10.448;2023-04-29T09:56:59;19.10;67.70
20498;DHT22;10407;53.238;10.448;2023-04-29T09:59:28;19.10;67.20
20498;DHT22;10407;53.238;10.448;2023-04-29T10:01:57;19.20;64.70
20498;DHT22;10407;53.238;10.448;2023-04-29T10:04:26;19.20;64.00
20498;DHT22;10407;53.238;10.448;2023-04-29T10:06:54;19.00;59.90
20498;DHT22;10407;53.238;10.448;2023-04-29T10:09:23;19.10;62.00
20498;DHT22;10407;53.238;10.448;2023-04-29T10:11:52;18.90;62.50
20498;DHT22;10407;53.238;10.448;2023-04-29T10:14:22;18.80;59.30
20498;DHT22;10407;53.238;10.448;2023-04-29T10:17:08;19.00;59.80
20498;DHT22;10407;53.238;10.448;2023-04-29T10:19:51;19.10;62.40
20498;DHT22;10407;53.238;10.448;2023-04-29T10:22:28;19.30;61.70
20498;DHT22;10407;53.238;10.448;2023-04-29T10:24:56;18.90;58.80
20498;DHT22;10407;53.238;10.448;2023-04-29T10:27:25;17.90;64.90
20498;DHT22;10407;53.238;10.448;2023-04-29T10:29:55;18.80;66.80
20498;DHT22;10407;53.238;10.448;2023-04-29T10:32:26;19.20;64.50
20498;DHT22;10407;53.238;10.448;2023-04-29T10:34:56;19.20;60.30
20498;DHT22;10407;53.238;10.448;2023-04-29T10:37:25;19.20;63.10
20498;DHT22;10407;53.238;10.448;2023-04-29T10:45:29;18.90;67.80
20498;DHT22;10407;53.238;10.448;2023-04-29T10:48:11;19.10;61.30
20498;DHT22;10407;53.238;10.448;2023-04-29T10:53:16;19.50;58.10
20498;DHT22;10407;53.238;10.448;2023-04-29T10:56:04;17.60;56.50
20498;DHT22;10407;53.238;10.448;2023-04-29T10:58:37;18.20;58.70
20498;DHT22;10407;53.238;10.448;2023-04-29T11:01:05;18.00;62.30
20498;DHT22;10407;53.238;10.448;2023-04-29T11:03:52;17.90;58.60
20498;DHT22;10407;53.238;10.448;2023-04-29T11:09:18;19.20;62.00
20498;DHT22;10407;53.238;10.448;2023-04-29T11:11:52;19.40;63.90
20498;DHT22;10407;53.238;10.448;2023-04-29T11:14:20;18.50;58.30
20498;DHT22;10407;53.238;10.448;2023-04-29T11:16:55;18.20;67.00
20498;DHT22;10407;53.238;10.448;2023-04-29T11:19:24;19.00;62.00
20498;DHT22;10407;53.238;10.448;2023-04-29T11:22:13;18.90;61.20
20498;DHT22;10407;53.238;10.448;2023-04-29T11:24:49;19.10;58.50
20498;DHT22;10407;53.238;10.448;2023-04-29T11:27:17;19.40;59.40
20498;DHT22;10407;53.238;10.448;2023-04-29T11:29:46;19.60;60.00
20498;DHT22;10407;53.238;10.448;2023-04-29T11:32:14;20.00;58.80
20498;DHT22;10407;53.238;10.448;2023-04-29T11:34:41;18.90;51.50
20498;DHT22;10407;53.238;10.448;2023-04-29T11:37:09;18.50;61.20
20498;DHT22;10407;53.238;10.448;2023-04-29T11:39:37;18.70;61.50
20498;DHT22;10407;53.238;10.448;2023-04-29T11:42:05;18.80;55.90
20498;DHT22;10407;53.238;10.448;2023-04-29T11:44:34;18.80;58.90
20498;DHT22;10407;53.238;10.448;2023-04-29T11:47:04;18.80;58.60
20498;DHT22;10407;53.238;10.448;2023-04-29T11:49:32;18.70;57.10
20498;DHT22;10407;53.238;10.448;2023-04-29T11:52:00;18.50;59.80
20498;DHT22;10407;53.238;10.448;2023-04-29T11:54:29;18.20;56.80
20498;DHT22;10407;53.238;10.448;2023-04-29T11:56:57;17.60;54.60
20498;DHT22;10407;53.238;10.448;2023-04-29T11:59:25;17.30;61.50
20498;DHT22;10407;53.238;10.448;2023-04-29T12:01:53;17.90;62.30
20498;DHT22;10407;53.238;10.448;2023-04-29T12:04:20;17.90;59.50
20498;DHT22;10407;53.238;10.448;2023-04-29T12:06:52;18.10;58.20
20498;DHT22;10407;53.238;10.448;2023-04-29T12:09:20;18.40;56.90
20498;DHT22;10407;53.238;10.448;2023-04-29T12:11:48;18.50;53.60
20498;DHT22;10407;53.238;10.448;2023-04-29T12:14:17;18.30;57.20
20498;DHT22;10407;53.238;10.448;2023-04-29T12:16:46;18.50;55.00
20498;DHT22;10407;53.238;10.448;2023-04-29T12:19:13;18.70;53.90
20498;DHT22;10407;53.238;10.448;2023-04-29T12:21:48;18.90;52.70
20498;DHT22;10407;53.238;10.448;2023-04-29T12:24:19;18.60;50.80
20498;DHT22;10407;53.238;10.448;2023-04-29T12:26:48;17.80;55.00
20498;DHT22;10407;53.238;10.448;2023-04-29T12:29:19;18.00;55.00
20498;DHT22;10407;53.238;10.448;2023-04-29T12:31:46;18.00;54.80
20498;DHT22;10407;53.238;10.448;2023-04-29T12:34:14;18.10;53.80
20498;DHT22;10407;53.238;10.448;2023-04-29T12:36:42;18.50;51.60
20498;DHT22;10407;53.238;10.448;2023-04-29T12:39:10;19.00;51.00
20498;DHT22;10407;53.238;10.448;2023-04-29T12:41:41;19.40;50.80
20498;DHT22;10407;53.238;10.448;2023-04-29T12:44:10;19.60;47.00
20498;DHT22;10407;53.238;10.448;2023-04-29T12:46:40;19.50;47.30
20498;DHT22;10407;53.238;10.448;2023-04-29T12:49:08;18.40;47.40
20498;DHT22;10407;53.238;10.448;2023-04-29T12:51:35;18.10;50.70
20498;DHT22;10407;53.238;10.448;2023-04-29T12:54:03;18.60;48.20
20498;DHT22;10407;53.238;10.448;2023-04-29T12:56:33;18.50;47.70
20498;DHT22;10407;53.238;10.448;2023-04-29T12:59:08;18.30;49.40
20498;DHT22;10407;53.238;10.448;2023-04-29T13:01:38;17.90;49.20
20498;DHT22;10407;53.238;10.448;2023-04-29T13:04:05;17.30;51.30
20498;DHT22;10407;53.238;10.448;2023-04-29T13:06:35;17.00;52.10
20498;DHT22;10407;53.238;10.448;2023-04-29T13:09:08;17.30;54.50
20498;DHT22;10407;53.238;10.448;2023-04-29T13:11:52;17.40;55.60
20498;DHT22;10407;53.238;10.448;2023-04-29T13:14:20;17.50;53.50
20498;DHT22;10407;53.238;10.448;2023-04-29T13:16:48;17.40;54.30
20498;DHT22;10407;53.238;10.448;2023-04-29T13:19:15;17.80;54.20
20498;DHT22;10407;53.238;10.448;2023-04-29T13:21:43;17.20;55.80
20498;DHT22;10407;53.238;10.448;2023-04-29T13:24:12;17.10;56.20
20498;DHT22;10407;53.238;10.448;2023-04-29T13:26:39;17.10;57.70
20498;DHT22;10407;53.238;10.448;2023-04-29T13:29:07;17.00;56.10
20498;DHT22;10407;53.238;10.448;2023-04-29T13:31:34;17.10;57.60
20498;DHT22;10407;53.238;10.448;2023-04-29T13:34:02;16.90;55.90
20498;DHT22;10407;53.238;10.448;2023-04-29T13:36:29;16.80;55.90
20498;DHT22;10407;53.238;10.448;2023-04-29T13:38:57;17.30;57.30
20498;DHT22;10407;53.238;10.448;2023-04-29T13:41:25;18.00;56.60
20498;DHT22;10407;53.238;10.448;2023-04-29T13:43:53;18.40;55.70
20498;DHT22;10407;53.238;10.448;2023-04-29T13:46:20;18.50;53.00
20498;DHT22;10407;53.238;10.448;2023-04-29T13:48:48;18.80;53.50
20498;DHT22;10407;53.238;10.448;2023-04-29T13:51:15;18.80;52.10
20498;DHT22;10407;53.238;10.448;2023-04-29T13:53:43;18.90;51.70
20498;DHT22;10407;53.238;10.448;2023-04-29T13:56:10;18.80;52.00
20498;DHT22;10407;53.238;10.448;2023-04-29T13:58:38;18.60;51.40
20498;DHT22;10407;53.238;10.448;2023-04-29T14:01:07;18.70;51.90
20498;DHT22;10407;53.238;10.448;2023-04-29T14:03:35;18.60;50.90
20498;DHT22;10407;53.238;10.448;2023-04-29T14:06:02;17.80;50.30
20498;DHT22;10407;53.238;10.448;2023-04-29T14:08:30;17.30;51.00
20498;DHT22;10407;53.238;10.448;2023-04-29T14:10:57;17.30;54.00
20498;DHT22;10407;53.238;10.448;2023-04-29T14:13:25;16.80;52.20
20498;DHT22;10407;53.238;10.448;2023-04-29T14:15:53;17.50;56.20
20498;DHT22;10407;53.238;10.448;2023-04-29T14:18:22;18.00;54.10
20498;DHT22;10407;53.238;10.448;2023-04-29T14:20:49;17.90;53.60
20498;DHT22;10407;53.238;10.448;2023-04-29T14:23:17;17.70;53.40
20498;DHT22;10407;53.238;10.448;2023-04-29T14:25:44;17.80;52.00
20498;DHT22;10407;53.238;10.448;2023-04-29T14:28:12;17.70;54.00
20498;DHT22;10407;53.238;10.448;2023-04-29T14:30:40;18.00;51.60
20498;DHT22;10407;53.238;10.448;2023-04-29T14:33:09;18.00;50.50
20498;DHT22;10407;53.238;10.448;2023-04-29T14:35:36;17.70;49.80
20498;DHT22;10407;53.238;10.448;2023-04-29T14:38:04;17.70;49.00
20498;DHT22;10407;53.238;10.448;2023-04-29T14:40:31;17.70;50.00
20498;DHT22;10407;53.238;10.448;2023-04-29T14:42:59;17.60;49.70
20498;DHT22;10407;53.238;10.448;2023-04-29T14:45:27;17.60;47.50
20498;DHT22;10407;53.238;10.448;2023-04-29T14:47:55;17.40;48.10
20498;DHT22;10407;53.238;10.448;2023-04-29T14:50:22;17.50;47.90
20498;DHT22;10407;53.238;10.448;2023-04-29T14:52:50;17.50;47.50
20498;DHT22;10407;53.238;10.448;2023-04-29T14:55:18;17.20;48.30
20498;DHT22;10407;53.238;10.448;2023-04-29T14:57:45;17.30;47.70
20498;DHT22;10407;53.238;10.448;2023-04-29T15:00:13;17.40;45.40
20498;DHT22;10407;53.238;10.448;2023-04-29T15:02:41;17.10;44.40
20498;DHT22;10407;53.238;10.448;2023-04-29T15:05:09;17.10;43.20
20498;DHT22;10407;53.238;10.448;2023-04-29T15:07:36;17.20;43.80
20498;DHT22;10407;53.238;10.448;2023-04-29T15:10:04;17.20;43.40
20498;DHT22;10407;53.238;10.448;2023-04-29T15:12:33;17.30;42.50
20498;DHT22;10407;53.238;10.448;2023-04-29T15:15:01;17.20;42.40
20498;DHT22;10407;53.238;10.448;2023-04-29T15:17:30;17.20;42.20
20498;DHT22;10407;53.238;10.448;2023-04-29T15:19:57;17.20;42.20
20498;DHT22;10407;53.238;10.448;2023-04-29T15:22:25;17.00;41.50
20498;DHT22;10407;53.238;10.448;2023-04-29T15:24:52;16.90;42.00
20498;DHT22;10407;53.238;10.448;2023-04-29T15:27:20;16.80;43.20
20498;DHT22;10407;53.238;10.448;2023-04-29T15:29:47;17.00;45.30
20498;DHT22;10407;53.238;10.448;2023-04-29T15:32:15;17.10;46.50
20498;DHT22;10407;53.238;10.448;2023-04-29T15:34:42;16.80;46.00
20498;DHT22;10407;53.238;10.448;2023-04-29T15:37:10;16.70;47.50
20498;DHT22;10407;53.238;10.448;2023-04-29T15:39:37;16.70;48.60
20498;DHT22;10407;53.238;10.448;2023-04-29T15:42:05;16.70;48.90
20498;DHT22;10407;53.238;10.448;2023-04-29T15:44:33;16.60;48.60
20498;DHT22;10407;53.238;10.448;2023-04-29T15:47:01;16.60;48.90
20498;DHT22;10407;53.238;10.448;2023-04-29T15:49:29;16.50;47.60
20498;DHT22;10407;53.238;10.448;2023-04-29T15:51:56;16.60;48.60